Time;durP1;ratioP1;P1;durP2;ratioP2;P2;SDS_P1;SDS_P2;PMS_P1;PMS_P2;Temp;Humidity;BMP_temperature;BMP_pressure;BME280_temperature;BME280_humidity;BME280_pressure;Samples;Min_cycle;Max_cycle;Signal;HPM_P1;HPM_P2
2024/02/18 00:00:07;;;;;;;12.98;7.47;;;11.70;99.90;;;;;;5060323;28;36466;-84
2024/02/18 00:02:34;;;;;;;14.80;7.20;;;11.70;99.90;;;;;;5039657;28;37763;-83
2024/02/18 00:05:04;;;;;;;14.93;7.00;;;11.70;99.90;;;;;;5041029;28;38254;-83
2024/02/18 00:07:30;;;;;;;13.77;6.82;;;11.70;99.90;;;;;;5062902;28;47534;-82
2024/02/18 00:09:56;;;;;;;17.20;7.25;;;11.70;99.90;;;;;;5039608;28;37571;-83
2024/02/18 00:12:24;;;;;;;12.05;6.65;;;11.70;99.90;;;;;;5063249;28;38207;-84
2024/02/18 00:14:51;;;;;;;14.75;6.60;;;11.80;99.90;;;;;;5051411;28;38641;-83
2024/02/18 00:17:18;;;;;;;13.15;6.85;;;11.80;99.90;;;;;;5047352;28;37867;-83
2024/02/18 00:19:44;;;;;;;14.30;6.40;;;11.80;99.90;;;;;;5048356;28;37961;-83
2024/02/18 00:22:10;;;;;;;12.93;6.47;;;11.70;99.90;;;;;;5042014;28;38569;-82
2024/02/18 00:24:36;;;;;;;12.07;6.20;;;11.70;99.90;;;;;;5056999;28;37390;-84
2024/02/18 00:27:03;;;;;;;17.00;6.55;;;11.70;99.90;;;;;;5053027;28;37533;-82
2024/02/18 00:29:29;;;;;;;20.77;7.22;;;11.70;99.90;;;;;;5060071;28;38765;-83
2024/02/18 00:31:56;;;;;;;19.10;6.47;;;11.70;99.90;;;;;;5044562;28;38031;-82
2024/02/18 00:34:22;;;;;;;17.63;7.07;;;11.70;99.90;;;;;;5040064;28;37284;-83
2024/02/18 00:36:48;;;;;;;16.80;6.60;;;11.70;99.90;;;;;;5044111;28;36896;-83
2024/02/18 00:39:15;;;;;;;13.77;6.07;;;11.70;99.90;;;;;;5044038;28;37599;-83
2024/02/18 00:41:42;;;;;;;13.60;6.10;;;11.70;99.90;;;;;;5056716;28;39188;-84
2024/02/18 00:44:09;;;;;;;9.70;5.97;;;11.70;99.90;;;;;;5052080;28;37719;-83
2024/02/18 00:46:35;;;;;;;15.70;6.00;;;11.70;99.90;;;;;;5039216;28;36530;-83
2024/02/18 00:49:01;;;;;;;10.00;5.78;;;11.70;99.90;;;;;;5039131;28;37791;-80
2024/02/18 00:51:28;;;;;;;18.10;6.40;;;11.70;99.90;;;;;;5039451;28;39576;-83
2024/02/18 00:53:54;;;;;;;13.50;6.22;;;11.70;99.90;;;;;;5044946;28;37084;-83
2024/02/18 00:56:20;;;;;;;12.80;5.90;;;11.70;99.90;;;;;;5055997;28;38145;-82
2024/02/18 00:58:48;;;;;;;10.50;6.28;;;11.70;99.90;;;;;;5055191;28;37285;-82
2024/02/18 01:01:14;;;;;;;9.10;5.47;;;11.70;99.90;;;;;;5047068;28;39288;-83
2024/02/18 01:03:40;;;;;;;10.43;5.65;;;11.70;99.90;;;;;;5046636;28;38053;-81
2024/02/18 01:06:06;;;;;;;8.90;5.60;;;11.70;99.90;;;;;;5050169;28;36839;-81
2024/02/18 01:08:33;;;;;;;15.07;6.20;;;11.70;99.90;;;;;;5065381;28;37152;-81
2024/02/18 01:10:59;;;;;;;15.18;5.88;;;11.70;99.90;;;;;;5047770;28;38485;-84
2024/02/18 01:13:25;;;;;;;13.00;5.70;;;11.70;99.90;;;;;;5038551;28;37413;-82
2024/02/18 01:15:51;;;;;;;10.90;4.75;;;11.70;99.90;;;;;;5040531;28;39052;-81
2024/02/18 01:18:17;;;;;;;12.10;5.25;;;11.70;99.90;;;;;;5042621;28;37710;-81
2024/02/18 01:20:44;;;;;;;8.95;4.93;;;11.70;99.90;;;;;;5040328;28;37726;-81
2024/02/18 01:23:11;;;;;;;12.18;5.05;;;11.70;99.90;;;;;;5038771;28;39088;-79
2024/02/18 01:25:37;;;;;;;16.00;5.13;;;11.70;99.90;;;;;;5041644;28;38696;-77
2024/02/18 01:28:04;;;;;;;7.78;4.65;;;11.60;99.90;;;;;;5048227;28;37940;-79
2024/02/18 01:30:30;;;;;;;12.82;4.93;;;11.60;99.90;;;;;;5064985;28;39426;-79
2024/02/18 01:32:56;;;;;;;9.00;5.22;;;11.60;99.90;;;;;;5064252;28;39978;-78
2024/02/18 01:35:22;;;;;;;10.20;4.43;;;11.60;99.90;;;;;;5045476;28;37648;-79
2024/02/18 01:37:49;;;;;;;10.23;4.35;;;11.60;99.90;;;;;;5038752;28;37097;-78
2024/02/18 01:40:16;;;;;;;16.38;5.20;;;11.60;99.90;;;;;;5044127;28;37662;-79
2024/02/18 01:42:42;;;;;;;14.60;4.63;;;11.60;99.90;;;;;;5055004;28;37317;-78
2024/02/18 01:45:11;;;;;;;14.45;4.65;;;11.60;99.90;;;;;;5038934;28;38396;-80
2024/02/18 01:47:42;;;;;;;11.02;5.18;;;11.60;99.90;;;;;;5040113;28;37942;-79
2024/02/18 01:50:09;;;;;;;11.18;4.72;;;11.60;99.90;;;;;;5039639;28;39204;-80
2024/02/18 01:52:38;;;;;;;9.80;5.63;;;11.50;99.90;;;;;;5042573;28;38974;-79
2024/02/18 01:55:05;;;;;;;15.73;5.45;;;11.50;99.90;;;;;;5040016;28;39312;-79
2024/02/18 01:57:32;;;;;;;10.43;5.00;;;11.50;99.90;;;;;;5038869;28;38346;-81
2024/02/18 02:00:00;;;;;;;13.23;4.97;;;11.40;99.90;;;;;;5043784;28;39563;-80
2024/02/18 02:56:57;;;;;;;12.77;4.75;;;11.00;99.90;;;;;;5057966;28;20054;-80
2024/02/18 02:59:46;;;;;;;15.80;4.57;;;11.00;99.90;;;;;;5056516;28;38448;-81
2024/02/18 03:02:12;;;;;;;10.48;4.00;;;11.00;99.90;;;;;;5058771;28;39340;-79
2024/02/18 03:04:56;;;;;;;11.02;4.03;;;11.00;99.90;;;;;;5059572;28;39888;-80
2024/02/18 03:07:38;;;;;;;13.70;4.13;;;11.00;99.90;;;;;;5057391;28;38168;-80
2024/02/18 03:12:44;;;;;;;8.55;3.95;;;11.00;99.90;;;;;;5651485;22;20038;-80
2024/02/18 03:15:15;;;;;;;12.55;4.22;;;11.00;99.90;;;;;;5076013;28;39675;-80
2024/02/18 03:17:54;;;;;;;16.30;4.40;;;11.00;99.90;;;;;;5090918;27;38216;-81
2024/02/18 03:20:29;;;;;;;11.63;5.00;;;11.00;99.90;;;;;;5095491;28;37650;-80
2024/02/18 03:23:04;;;;;;;14.57;4.07;;;11.00;99.90;;;;;;5092564;27;38679;-81
2024/02/18 03:26:04;;;;;;;7.77;3.57;;;11.00;99.90;;;;;;5113798;27;48567;-80
2024/02/18 03:28:30;;;;;;;13.00;3.83;;;11.00;99.90;;;;;;5505675;22;50118;-79
2024/02/18 03:31:21;;;;;;;12.30;3.40;;;11.00;99.90;;;;;;5094110;27;36937;-79
2024/02/18 03:34:23;;;;;;;13.73;4.17;;;11.00;99.90;;;;;;5099280;27;48773;-79
2024/02/18 03:36:54;;;;;;;14.53;3.70;;;11.10;99.90;;;;;;5119637;27;50807;-80
2024/02/18 03:39:21;;;;;;;10.50;3.63;;;11.10;99.90;;;;;;5091114;27;38717;-79
2024/02/18 03:41:55;;;;;;;6.77;3.00;;;11.10;99.90;;;;;;5097729;27;36591;-80
2024/02/18 03:44:36;;;;;;;11.83;3.80;;;11.10;99.90;;;;;;5089431;28;38911;-79
2024/02/18 03:47:10;;;;;;;11.23;3.63;;;11.10;99.90;;;;;;5092453;27;38119;-79
2024/02/18 03:49:37;;;;;;;15.13;4.07;;;11.10;99.90;;;;;;5096090;27;39251;-79
2024/02/18 03:52:19;;;;;;;12.50;4.00;;;11.10;99.90;;;;;;5098245;27;38668;-80
2024/02/18 03:57:34;;;;;;;10.30;4.13;;;11.10;99.90;;;;;;5416781;22;20052;-80
2024/02/18 04:00:00;;;;;;;8.67;3.87;;;11.00;99.90;;;;;;5531157;22;38946;-81
2024/02/18 04:02:43;;;;;;;16.77;4.10;;;11.00;99.90;;;;;;5077981;28;37172;-80
2024/02/18 04:05:16;;;;;;;9.88;3.42;;;11.10;99.90;;;;;;5059774;28;39182;-79
2024/02/18 04:07:47;;;;;;;16.80;4.23;;;11.10;99.90;;;;;;5067719;28;37304;-79
2024/02/18 04:10:20;;;;;;;12.43;4.33;;;11.00;99.90;;;;;;5070390;28;37476;-80
2024/02/18 04:12:53;;;;;;;14.20;4.20;;;11.10;99.90;;;;;;5061133;28;37163;-80
2024/02/18 04:15:38;;;;;;;11.77;4.07;;;11.00;99.90;;;;;;5054192;28;37942;-80
2024/02/18 04:18:04;;;;;;;10.27;3.97;;;11.00;99.90;;;;;;5071819;28;39798;-79
2024/02/18 04:20:31;;;;;;;14.67;4.60;;;11.00;99.90;;;;;;5068151;28;37569;-79
2024/02/18 04:23:14;;;;;;;12.90;4.00;;;11.00;99.90;;;;;;5079177;28;38669;-80
2024/02/18 04:25:43;;;;;;;;;;;10.90;99.90;;;;;;5072221;28;47287;-79
2024/02/18 04:28:13;;;;;;;11.63;4.57;;;10.90;99.90;;;;;;5050710;28;38012;-79
2024/02/18 04:30:44;;;;;;;12.37;3.80;;;10.90;99.90;;;;;;5053534;28;36708;-79
2024/02/18 04:33:11;;;;;;;13.50;4.68;;;10.80;99.90;;;;;;5048954;28;37240;-79
2024/02/18 04:35:44;;;;;;;12.87;3.97;;;10.80;99.90;;;;;;5047722;28;38468;-79
2024/02/18 04:38:16;;;;;;;;;;;10.70;99.90;;;;;;5061277;28;39700;-79
2024/02/18 04:40:45;;;;;;;13.70;4.53;;;10.80;99.90;;;;;;5055812;28;37783;-79
2024/02/18 04:43:11;;;;;;;13.33;4.23;;;10.80;99.90;;;;;;5052498;28;36797;-79
2024/02/18 04:45:38;;;;;;;17.87;4.20;;;10.80;99.90;;;;;;5052557;28;37448;-79
2024/02/18 04:48:07;;;;;;;12.70;5.00;;;10.80;99.90;;;;;;5062971;28;39554;-79
2024/02/18 04:50:38;;;;;;;20.33;4.60;;;10.80;99.90;;;;;;5065729;28;38125;-79
2024/02/18 04:53:19;;;;;;;11.57;3.57;;;10.80;99.90;;;;;;5053693;28;36745;-79
2024/02/18 04:55:46;;;;;;;11.73;4.60;;;10.80;99.90;;;;;;5058655;28;39193;-80
2024/02/18 04:58:35;;;;;;;16.87;4.33;;;10.70;99.90;;;;;;5383318;22;38832;-79
2024/02/18 05:01:18;;;;;;;14.47;5.23;;;10.80;99.90;;;;;;5106722;27;36677;-79
2024/02/18 05:06:20;;;;;;;14.47;4.47;;;10.70;99.90;;;;;;5982958;22;20045;-80
2024/02/18 05:08:56;;;;;;;12.10;3.90;;;10.70;99.90;;;;;;5068294;28;38448;-80
2024/02/18 05:11:29;;;;;;;14.53;3.87;;;10.70;99.90;;;;;;5055151;28;37563;-79
2024/02/18 05:13:59;;;;;;;;;;;10.70;99.90;;;;;;5075390;28;38846;-79
2024/02/18 05:16:29;;;;;;;19.13;3.90;;;10.70;99.90;;;;;;5053124;27;39390;-79
2024/02/18 05:18:55;;;;;;;11.13;4.30;;;10.60;99.90;;;;;;5064752;27;38710;-80
2024/02/18 05:21:24;;;;;;;16.30;4.80;;;10.60;99.90;;;;;;5051770;28;36761;-79
2024/02/18 05:23:51;;;;;;;15.07;4.27;;;10.60;99.90;;;;;;5067835;28;37604;-79
2024/02/18 05:26:19;;;;;;;12.83;4.17;;;10.50;99.90;;;;;;5047274;28;20093;-79
2024/02/18 05:28:59;;;;;;;14.57;4.87;;;10.50;99.90;;;;;;5055656;28;37637;-80
2024/02/18 05:31:35;;;;;;;12.50;3.87;;;10.50;99.90;;;;;;5058294;28;37845;-79
2024/02/18 05:34:13;;;;;;;15.27;4.80;;;10.50;99.90;;;;;;5076029;28;38725;-79
2024/02/18 05:36:50;;;;;;;14.23;4.83;;;10.40;99.90;;;;;;5059048;28;37858;-79
2024/02/18 05:39:19;;;;;;;14.13;4.50;;;10.40;99.90;;;;;;5046039;28;39805;-79
2024/02/18 05:41:53;;;;;;;12.33;4.80;;;10.40;99.90;;;;;;5068953;28;38265;-79
2024/02/18 05:44:19;;;;;;;18.27;4.60;;;10.30;99.90;;;;;;5054310;28;37134;-79
2024/02/18 05:46:47;;;;;;;18.83;5.63;;;10.30;99.90;;;;;;5055085;28;37999;-80
2024/02/18 05:49:15;;;;;;;16.40;4.67;;;10.30;99.90;;;;;;5052959;28;37294;-79
2024/02/18 05:51:54;;;;;;;14.67;4.60;;;10.30;99.90;;;;;;5070115;28;37797;-79
2024/02/18 05:54:23;;;;;;;15.10;4.70;;;10.30;99.90;;;;;;5070203;28;36606;-80
2024/02/18 05:56:52;;;;;;;11.87;4.47;;;10.30;99.90;;;;;;5066880;28;39313;-79
2024/02/18 05:59:18;;;;;;;12.70;4.90;;;10.30;99.90;;;;;;5044706;28;37057;-79
2024/02/18 06:01:47;;;;;;;17.43;4.90;;;10.30;99.90;;;;;;5051158;28;37444;-79
2024/02/18 06:04:14;;;;;;;13.97;4.27;;;10.30;99.90;;;;;;5055558;28;36861;-79
2024/02/18 06:06:43;;;;;;;11.80;4.40;;;10.20;99.90;;;;;;5068994;28;41199;-79
2024/02/18 06:09:10;;;;;;;16.73;4.57;;;10.20;99.90;;;;;;5056761;28;38751;-79
2024/02/18 06:11:37;;;;;;;9.57;4.33;;;10.20;99.90;;;;;;5050744;28;37887;-79
2024/02/18 06:14:03;;;;;;;15.80;4.60;;;10.30;99.90;;;;;;5052567;28;37130;-78
2024/02/18 06:16:37;;;;;;;15.37;4.20;;;10.30;99.90;;;;;;5059354;28;41114;-79
2024/02/18 06:19:03;;;;;;;13.37;4.23;;;10.20;99.90;;;;;;5055316;28;39177;-80
2024/02/18 06:21:30;;;;;;;15.33;4.23;;;10.30;99.90;;;;;;5047846;28;38230;-79
2024/02/18 06:23:57;;;;;;;10.73;4.50;;;10.30;99.90;;;;;;5043038;28;35098;-79
2024/02/18 06:26:24;;;;;;;12.90;4.20;;;10.30;99.90;;;;;;5070193;28;39504;-78
2024/02/18 06:28:50;;;;;;;18.03;5.60;;;10.20;99.90;;;;;;5055331;28;37278;-79
2024/02/18 06:31:17;;;;;;;12.63;4.33;;;10.20;99.90;;;;;;5055297;28;37443;-79
2024/02/18 06:33:47;;;;;;;14.30;4.50;;;10.20;99.90;;;;;;5053313;28;36322;-78
2024/02/18 06:36:14;;;;;;;15.67;4.17;;;10.10;99.90;;;;;;5049261;28;38954;-80
2024/02/18 06:38:51;;;;;;;14.33;4.20;;;10.20;99.90;;;;;;5062000;28;38922;-80
2024/02/18 06:41:24;;;;;;;12.40;4.03;;;10.20;99.90;;;;;;5060963;28;37509;-79
2024/02/18 06:43:53;;;;;;;18.67;4.33;;;10.10;99.90;;;;;;5063376;28;36081;-80
2024/02/18 06:46:25;;;;;;;13.97;4.37;;;10.20;99.90;;;;;;5058785;28;37785;-79
2024/02/18 06:48:52;;;;;;;11.63;4.18;;;10.20;99.90;;;;;;5059973;28;37449;-79
2024/02/18 06:51:21;;;;;;;11.17;3.70;;;10.10;99.90;;;;;;5057143;28;36909;-79
2024/02/18 06:53:48;;;;;;;10.97;4.70;;;10.20;99.90;;;;;;5048738;28;37176;-79
2024/02/18 06:56:18;;;;;;;12.37;4.23;;;10.10;99.90;;;;;;5052236;28;38854;-79
2024/02/18 06:58:47;;;;;;;12.73;4.90;;;10.10;99.90;;;;;;5059739;28;37885;-80
2024/02/18 07:01:20;;;;;;;9.60;3.87;;;10.20;99.90;;;;;;5070871;28;38227;-78
2024/02/18 07:03:52;;;;;;;11.53;3.80;;;10.20;99.90;;;;;;5068623;28;37675;-80
2024/02/18 07:06:32;;;;;;;9.85;4.13;;;10.20;99.90;;;;;;5048043;28;39609;-79
2024/02/18 07:09:01;;;;;;;12.73;3.50;;;10.20;99.90;;;;;;5060502;28;38763;-79
2024/02/18 07:11:28;;;;;;;13.27;3.53;;;10.20;99.90;;;;;;5064456;28;39167;-79
2024/02/18 07:13:54;;;;;;;10.77;3.57;;;10.20;99.90;;;;;;5050093;28;38248;-79
2024/02/18 07:16:23;;;;;;;15.10;5.03;;;10.20;99.90;;;;;;5070225;28;39493;-78
2024/02/18 07:18:50;;;;;;;15.83;4.53;;;10.20;99.90;;;;;;5045878;28;37252;-79
2024/02/18 07:21:17;;;;;;;12.70;3.80;;;10.10;99.90;;;;;;5048297;28;36633;-79
2024/02/18 07:23:51;;;;;;;9.73;3.57;;;10.10;99.90;;;;;;5051198;28;37776;-79
2024/02/18 07:26:17;;;;;;;16.40;4.10;;;10.10;99.90;;;;;;5046265;28;39042;-79
2024/02/18 07:28:49;;;;;;;12.50;3.30;;;10.10;99.90;;;;;;5067595;28;38820;-79
2024/02/18 07:31:19;;;;;;;11.07;3.47;;;10.10;99.90;;;;;;5051543;28;36521;-79
2024/02/18 07:33:47;;;;;;;16.90;4.43;;;10.10;99.90;;;;;;5069634;28;38318;-79
2024/02/18 07:36:14;;;;;;;16.87;4.67;;;10.10;99.90;;;;;;5054238;28;38094;-79
2024/02/18 07:38:40;;;;;;;11.60;4.00;;;10.10;99.90;;;;;;5051557;28;38479;-79
2024/02/18 07:41:07;;;;;;;14.13;4.27;;;10.10;99.90;;;;;;5067263;28;38306;-78
2024/02/18 07:43:35;;;;;;;14.23;3.80;;;10.10;99.90;;;;;;5054648;28;35890;-79
2024/02/18 07:46:01;;;;;;;9.40;3.43;;;10.10;99.90;;;;;;5049415;28;37858;-79
2024/02/18 07:48:30;;;;;;;11.10;3.60;;;10.20;99.90;;;;;;5057775;28;47273;-80
2024/02/18 07:50:59;;;;;;;14.27;4.27;;;10.10;99.90;;;;;;5048468;28;37276;-80
2024/02/18 07:53:26;;;;;;;10.83;4.00;;;10.10;99.90;;;;;;5067422;28;37668;-80
2024/02/18 07:55:53;;;;;;;10.03;3.60;;;10.10;99.90;;;;;;5050580;28;37372;-80
2024/02/18 07:58:19;;;;;;;13.40;3.97;;;10.00;99.90;;;;;;5055992;28;39571;-79
2024/02/18 08:00:49;;;;;;;12.10;3.77;;;10.00;99.90;;;;;;5046246;28;37871;-79
2024/02/18 08:03:15;;;;;;;10.80;3.67;;;10.00;99.90;;;;;;5059535;28;37432;-79
2024/02/18 08:05:46;;;;;;;8.13;3.60;;;10.00;99.90;;;;;;5059422;28;38236;-80
2024/02/18 08:08:25;;;;;;;10.13;3.57;;;10.00;99.90;;;;;;5046758;28;39068;-79
2024/02/18 08:10:52;;;;;;;12.17;3.27;;;10.00;99.90;;;;;;5056843;28;37849;-80
2024/02/18 08:13:30;;;;;;;13.93;3.90;;;9.90;99.90;;;;;;5064581;28;37050;-79
2024/02/18 08:15:58;;;;;;;10.63;3.97;;;9.90;99.90;;;;;;5069290;28;38028;-80
2024/02/18 08:18:25;;;;;;;11.93;4.37;;;9.90;99.90;;;;;;5055089;28;38244;-80
2024/02/18 08:21:05;;;;;;;18.10;4.97;;;9.90;99.90;;;;;;5054260;28;36615;-80
2024/02/18 08:23:32;;;;;;;13.63;4.23;;;9.90;99.90;;;;;;5068090;28;47376;-78
2024/02/18 08:25:59;;;;;;;15.50;4.87;;;9.80;99.90;;;;;;5053859;28;38908;-81
2024/02/18 08:28:28;;;;;;;18.07;4.70;;;9.90;99.90;;;;;;5058707;28;38000;-79
2024/02/18 08:31:05;;;;;;;15.73;4.03;;;9.80;99.90;;;;;;5051635;28;37753;-80
2024/02/18 08:33:35;;;;;;;14.93;5.07;;;9.80;99.90;;;;;;5039237;28;48415;-79
2024/02/18 08:36:04;;;;;;;20.77;4.83;;;9.80;99.90;;;;;;5063068;28;39127;-80
2024/02/18 08:41:07;;;;;;;13.53;4.40;;;9.80;99.90;;;;;;5998424;22;20049;-79
2024/02/18 08:43:36;;;;;;;13.13;4.70;;;9.80;99.90;;;;;;5055654;28;38719;-78
2024/02/18 08:46:03;;;;;;;16.13;4.23;;;9.70;99.90;;;;;;5049278;28;38338;-78
2024/02/18 08:48:29;;;;;;;17.80;4.43;;;9.80;99.90;;;;;;5054170;28;38737;-79
2024/02/18 08:50:57;;;;;;;15.50;4.50;;;9.80;99.90;;;;;;5060823;28;38420;-79
2024/02/18 08:53:27;;;;;;;14.73;4.67;;;9.80;99.90;;;;;;5056092;28;37038;-79
2024/02/18 08:55:56;;;;;;;14.50;5.77;;;9.80;99.90;;;;;;5056669;28;38334;-80
2024/02/18 08:58:23;;;;;;;14.57;4.70;;;9.80;99.90;;;;;;5058018;28;38363;-80
2024/02/18 09:00:53;;;;;;;10.93;4.90;;;9.80;99.90;;;;;;5049431;28;38964;-80
2024/02/18 09:03:20;;;;;;;17.50;5.03;;;9.70;99.90;;;;;;5071540;28;38136;-80
2024/02/18 09:05:49;;;;;;;14.40;4.60;;;9.70;99.90;;;;;;5055220;28;37792;-78
2024/02/18 09:08:15;;;;;;;14.87;4.67;;;9.70;99.90;;;;;;5060180;28;39779;-79
2024/02/18 09:10:51;;;;;;;11.40;4.57;;;9.70;99.90;;;;;;5052871;28;37743;-80
2024/02/18 09:13:34;;;;;;;16.00;5.23;;;9.70;99.90;;;;;;5069296;28;37567;-80
2024/02/18 09:16:01;;;;;;;12.87;4.67;;;9.70;99.90;;;;;;5070753;28;39139;-78
2024/02/18 09:18:31;;;;;;;12.97;4.50;;;9.70;99.90;;;;;;5062992;28;47533;-78
2024/02/18 09:21:04;;;;;;;15.83;5.07;;;9.70;99.90;;;;;;5076803;28;38373;-80
2024/02/18 09:23:42;;;;;;;21.27;5.27;;;9.70;99.90;;;;;;5058912;28;48779;-79
2024/02/18 09:26:12;;;;;;;17.57;5.27;;;9.70;99.90;;;;;;5039348;28;37950;-79
2024/02/18 09:28:44;;;;;;;15.47;5.00;;;9.70;99.90;;;;;;5056129;28;38429;-80
2024/02/18 09:31:14;;;;;;;15.00;4.70;;;9.70;99.90;;;;;;5056139;28;40591;-78
2024/02/18 09:33:45;;;;;;;17.57;5.10;;;9.70;99.90;;;;;;5046847;28;37442;-79
2024/02/18 09:36:12;;;;;;;14.13;5.95;;;9.70;99.90;;;;;;5063172;28;39132;-79
2024/02/18 09:38:48;;;;;;;14.00;5.00;;;9.70;99.90;;;;;;5070248;28;38895;-80
2024/02/18 09:41:17;;;;;;;15.53;5.37;;;9.70;99.90;;;;;;5038123;28;38834;-80
2024/02/18 09:43:49;;;;;;;20.03;6.07;;;9.70;99.90;;;;;;5069364;28;37316;-79
2024/02/18 09:46:20;;;;;;;19.23;5.40;;;9.70;99.90;;;;;;5048590;28;38121;-79
2024/02/18 09:49:30;;;;;;;12.93;4.43;;;9.70;99.90;;;;;;5062584;28;38319;-79
2024/02/18 09:51:58;;;;;;;13.20;5.07;;;9.70;99.90;;;;;;5059268;28;47819;-79
2024/02/18 09:54:28;;;;;;;12.07;4.73;;;9.70;99.90;;;;;;5054791;28;37051;-79
2024/02/18 09:57:02;;;;;;;16.07;4.30;;;9.70;99.90;;;;;;5068585;28;38474;-79
2024/02/18 09:59:30;;;;;;;15.30;4.63;;;9.70;99.90;;;;;;5040762;28;48438;-79
2024/02/18 10:02:06;;;;;;;12.57;4.83;;;9.70;99.90;;;;;;5040222;28;36575;-79
2024/02/18 10:04:32;;;;;;;13.50;5.10;;;9.70;99.90;;;;;;5045008;28;46870;-79
2024/02/18 10:06:59;;;;;;;16.80;5.07;;;9.70;99.90;;;;;;5047882;28;36249;-78
2024/02/18 10:09:31;;;;;;;13.43;4.83;;;9.70;99.90;;;;;;5069493;28;38973;-79
2024/02/18 10:12:01;;;;;;;17.13;5.57;;;9.60;99.90;;;;;;5070719;28;37502;-78
2024/02/18 10:14:31;;;;;;;11.53;5.40;;;9.70;99.90;;;;;;5053732;28;47428;-79
2024/02/18 10:17:00;;;;;;;13.80;5.47;;;9.60;99.90;;;;;;5055268;28;39983;-79
2024/02/18 10:19:26;;;;;;;16.03;5.43;;;9.60;99.90;;;;;;5051687;28;38501;-79
2024/02/18 10:21:57;;;;;;;12.40;5.10;;;9.60;99.90;;;;;;5073077;28;37217;-79
2024/02/18 10:24:24;;;;;;;13.73;5.27;;;9.60;99.90;;;;;;5051673;28;36065;-78
2024/02/18 10:26:55;;;;;;;14.70;5.27;;;9.60;99.90;;;;;;5046962;28;38981;-79
2024/02/18 10:29:28;;;;;;;15.13;5.90;;;9.60;99.90;;;;;;5082176;28;38565;-79
2024/02/18 10:31:55;;;;;;;;;;;9.60;99.90;;;;;;5068350;28;37588;-80
2024/02/18 10:34:30;;;;;;;13.30;5.27;;;9.60;99.90;;;;;;5046403;28;37403;-79
2024/02/18 10:37:05;;;;;;;14.23;5.80;;;9.60;99.90;;;;;;5071505;28;38996;-79
2024/02/18 10:40:02;;;;;;;13.00;5.23;;;9.60;99.90;;;;;;5057551;28;48857;-80
2024/02/18 10:42:30;;;;;;;11.87;4.60;;;9.60;99.90;;;;;;5057969;28;38317;-79
2024/02/18 10:44:59;;;;;;;10.33;4.50;;;9.60;99.90;;;;;;5056556;28;37535;-79
2024/02/18 10:47:52;;;;;;;13.23;4.43;;;9.60;99.90;;;;;;5072267;28;37897;-79
2024/02/18 10:50:21;;;;;;;9.77;4.10;;;9.60;99.90;;;;;;5063605;28;38133;-79
2024/02/18 10:53:02;;;;;;;11.00;4.63;;;9.60;99.90;;;;;;5069153;28;37421;-78
2024/02/18 10:55:48;;;;;;;9.67;4.30;;;9.60;99.90;;;;;;5066474;28;47818;-80
2024/02/18 10:58:35;;;;;;;8.97;4.47;;;9.60;99.90;;;;;;5068994;28;38874;-80
2024/02/18 11:01:07;;;;;;;9.57;5.20;;;9.60;99.90;;;;;;5072357;28;38917;-79
2024/02/18 11:03:49;;;;;;;7.47;4.60;;;9.60;99.90;;;;;;5052815;28;47212;-78
2024/02/18 11:06:46;;;;;;;12.68;4.70;;;9.60;99.90;;;;;;5050876;28;37082;-79
2024/02/18 11:09:24;;;;;;;13.77;5.00;;;9.60;99.90;;;;;;5049464;28;39020;-79
2024/02/18 11:11:53;;;;;;;10.50;4.53;;;9.60;99.90;;;;;;5054659;28;38275;-79
2024/02/18 11:14:27;;;;;;;12.37;5.00;;;9.60;99.90;;;;;;5046095;28;37280;-79
2024/02/18 11:16:58;;;;;;;11.47;5.13;;;9.60;99.90;;;;;;5063022;28;37716;-79
2024/02/18 11:19:31;;;;;;;7.97;4.47;;;9.60;99.90;;;;;;5042671;28;39230;-79
2024/02/18 11:22:11;;;;;;;9.83;4.40;;;9.70;99.90;;;;;;5054966;27;39791;-80
2024/02/18 11:24:42;;;;;;;8.37;4.20;;;9.60;99.90;;;;;;5004799;28;49242;-81
2024/02/18 11:27:18;;;;;;;10.17;4.90;;;9.70;99.90;;;;;;5040160;28;37280;-79
2024/02/18 11:29:51;;;;;;;10.00;4.40;;;9.70;99.90;;;;;;5046587;28;40076;-79
2024/02/18 11:32:18;;;;;;;8.20;3.70;;;9.70;99.90;;;;;;5042673;28;39608;-78
2024/02/18 11:34:48;;;;;;;7.90;3.97;;;9.70;99.90;;;;;;5063965;28;38296;-79
2024/02/18 11:37:35;;;;;;;14.80;5.87;;;9.70;99.90;;;;;;5057140;28;37017;-79
2024/02/18 11:40:13;;;;;;;12.10;4.13;;;9.80;99.90;;;;;;5057098;28;39079;-79
2024/02/18 11:42:50;;;;;;;6.47;3.70;;;9.80;99.90;;;;;;5044687;28;47385;-79
2024/02/18 11:45:20;;;;;;;10.23;4.07;;;9.80;99.90;;;;;;5037589;28;38494;-79
2024/02/18 11:47:58;;;;;;;12.27;4.90;;;9.80;99.90;;;;;;5044389;28;38817;-79
2024/02/18 11:50:37;;;;;;;8.30;3.57;;;9.80;99.90;;;;;;5044047;28;37578;-79
2024/02/18 11:53:06;;;;;;;8.07;3.73;;;9.80;99.90;;;;;;5018848;28;38123;-79
2024/02/18 11:55:38;;;;;;;9.63;4.47;;;9.80;99.90;;;;;;5045621;28;37171;-80
2024/02/18 11:58:19;;;;;;;8.98;4.50;;;9.70;99.90;;;;;;5035197;28;36195;-80
2024/02/18 12:01:10;;;;;;;9.70;4.30;;;9.80;99.90;;;;;;5034366;28;37948;-79
2024/02/18 12:03:43;;;;;;;9.30;4.57;;;9.80;99.90;;;;;;5039680;28;48081;-79
2024/02/18 12:06:14;;;;;;;11.53;5.30;;;9.80;99.90;;;;;;5039500;28;36456;-80
2024/02/18 12:08:41;;;;;;;9.07;5.53;;;9.80;99.90;;;;;;5045867;28;37287;-79
2024/02/18 12:11:16;;;;;;;12.13;5.50;;;9.80;99.90;;;;;;5060788;28;37338;-78
2024/02/18 12:13:44;;;;;;;8.73;5.30;;;9.80;99.90;;;;;;5053251;28;38513;-78
2024/02/18 12:16:14;;;;;;;16.97;6.43;;;9.80;99.90;;;;;;5038646;28;37678;-79
2024/02/18 12:18:41;;;;;;;11.27;6.83;;;9.80;99.90;;;;;;5027876;28;33652;-79
2024/02/18 12:21:17;;;;;;;9.77;6.80;;;9.80;99.90;;;;;;5034558;28;37823;-79
2024/02/18 12:23:54;;;;;;;13.67;7.67;;;9.80;99.90;;;;;;5053805;28;39188;-80
2024/02/18 12:26:22;;;;;;;12.03;7.60;;;9.80;99.90;;;;;;5052701;28;38964;-78
2024/02/18 12:28:52;;;;;;;15.53;8.07;;;9.80;99.90;;;;;;5062008;28;37630;-79
2024/02/18 12:31:23;;;;;;;10.83;8.53;;;9.80;99.90;;;;;;5061285;28;37971;-78
2024/02/18 12:33:54;;;;;;;13.87;9.57;;;9.90;99.90;;;;;;5069678;28;40352;-80
2024/02/18 12:36:29;;;;;;;15.07;9.85;;;9.90;99.90;;;;;;5027192;28;39179;-80
2024/02/18 12:39:13;;;;;;;13.00;10.53;;;9.90;99.90;;;;;;5059193;28;37613;-79
2024/02/18 12:41:46;;;;;;;14.30;11.20;;;9.90;99.90;;;;;;5072171;28;48406;-79
2024/02/18 12:44:26;;;;;;;13.73;11.40;;;9.90;99.90;;;;;;5042322;28;39217;-80
2024/02/18 12:47:24;;;;;;;16.10;11.40;;;9.90;99.90;;;;;;5068215;28;36894;-77
2024/02/18 12:50:06;;;;;;;12.73;11.40;;;9.90;99.90;;;;;;5047302;28;49084;-79
2024/02/18 12:52:39;;;;;;;13.52;10.63;;;10.00;99.90;;;;;;5069691;28;47136;-80
2024/02/18 12:55:06;;;;;;;11.77;10.57;;;10.00;99.90;;;;;;5071046;28;38804;-79
2024/02/18 12:57:34;;;;;;;16.17;11.03;;;10.00;99.90;;;;;;5053567;28;48611;-79
2024/02/18 13:00:04;;;;;;;14.97;9.77;;;10.10;99.90;;;;;;5048231;28;36570;-79
2024/02/18 13:02:34;;;;;;;14.70;10.77;;;10.10;99.90;;;;;;5055784;28;39119;-79
2024/02/18 13:05:02;;;;;;;10.97;7.90;;;10.20;99.90;;;;;;5071186;28;39499;-78
2024/02/18 13:07:30;;;;;;;11.07;6.80;;;10.30;99.90;;;;;;5056649;28;37742;-79
2024/02/18 13:10:02;;;;;;;9.13;5.87;;;10.30;99.90;;;;;;5049577;28;37382;-79
2024/02/18 13:12:33;;;;;;;8.07;5.50;;;10.40;99.90;;;;;;5056454;28;37989;-79
2024/02/18 13:15:09;;;;;;;6.63;4.60;;;10.40;99.90;;;;;;5073434;28;38570;-80
2024/02/18 13:17:35;;;;;;;9.07;4.57;;;10.50;99.90;;;;;;5057112;28;47679;-79
2024/02/18 13:20:01;;;;;;;6.37;5.03;;;10.50;99.90;;;;;;5084464;27;37593;-80
2024/02/18 13:22:29;;;;;;;5.75;4.53;;;10.60;99.90;;;;;;5044205;28;39246;-77
2024/02/18 13:24:55;;;;;;;5.30;3.75;;;10.70;99.90;;;;;;5049689;28;38210;-80
2024/02/18 13:27:22;;;;;;;5.15;4.38;;;10.70;99.90;;;;;;5054123;28;37698;-81
2024/02/18 13:29:48;;;;;;;5.25;4.30;;;10.80;99.90;;;;;;5063112;28;37399;-81
2024/02/18 13:32:21;;;;;;;5.55;3.35;;;10.80;99.90;;;;;;5053929;28;39087;-81
2024/02/18 13:34:47;;;;;;;5.13;2.83;;;10.80;99.90;;;;;;5053207;28;38793;-80
2024/02/18 13:37:20;;;;;;;6.68;3.45;;;10.90;99.90;;;;;;5071920;28;37905;-80
2024/02/18 13:40:06;;;;;;;7.75;2.20;;;10.90;99.90;;;;;;5050078;28;35947;-79
2024/02/18 13:42:32;;;;;;;9.82;2.00;;;11.00;99.90;;;;;;5066101;28;48216;-80
2024/02/18 13:45:05;;;;;;;12.52;3.28;;;11.00;99.90;;;;;;5072089;28;38490;-80
2024/02/18 13:47:31;;;;;;;14.98;2.97;;;11.00;99.90;;;;;;5081332;27;48611;-80
2024/02/18 13:50:02;;;;;;;13.83;2.80;;;11.10;99.90;;;;;;5056849;28;37418;-80
2024/02/18 13:52:34;;;;;;;12.27;2.70;;;11.10;99.90;;;;;;5072537;28;39342;-81
2024/02/18 13:55:00;;;;;;;19.13;3.40;;;11.20;99.90;;;;;;5070237;28;38619;-80
2024/02/18 13:57:26;;;;;;;16.80;2.70;;;11.20;99.90;;;;;;5067241;28;37032;-80
2024/02/18 13:59:54;;;;;;;13.65;2.70;;;11.20;99.90;;;;;;5051771;28;36792;-80
2024/02/18 14:02:27;;;;;;;11.07;2.53;;;11.20;99.90;;;;;;5070171;28;39247;-80
2024/02/18 14:04:54;;;;;;;7.17;1.53;;;11.20;99.90;;;;;;5069935;28;38269;-80
2024/02/18 14:07:31;;;;;;;8.85;2.05;;;11.30;99.90;;;;;;5061666;28;38065;-81